createdAt,value
2017-09-15T00:00:55.921Z,66.30
2017-09-15T00:03:23.658Z,66.70
2017-09-15T00:05:51.451Z,66.80
2017-09-15T00:08:19.891Z,66.90
2017-09-15T00:10:50.608Z,66.80
2017-09-15T00:13:19.002Z,66.70
2017-09-15T00:15:47.951Z,66.30
2017-09-15T00:18:15.777Z,66.30
2017-09-15T00:20:43.561Z,66.80
2017-09-15T00:23:11.368Z,67.30
2017-09-15T00:25:39.864Z,67.60
2017-09-15T00:28:08.413Z,67.70
2017-09-15T00:30:36.184Z,67.60
2017-09-15T00:33:03.996Z,67.60
2017-09-15T00:35:31.845Z,68.20
2017-09-15T00:37:59.652Z,68.30
2017-09-15T00:40:27.375Z,67.60
2017-09-15T00:42:55.169Z,67.00
2017-09-15T00:45:22.895Z,67.90
2017-09-15T00:47:50.614Z,67.50
2017-09-15T00:50:18.352Z,67.00
2017-09-15T00:52:46.132Z,66.40
2017-09-15T00:55:13.896Z,66.60
2017-09-15T00:57:42.468Z,67.70
2017-09-15T01:00:11.009Z,68.20
2017-09-15T01:02:38.827Z,68.10
2017-09-15T01:05:07.395Z,68.40
2017-09-15T01:07:35.157Z,68.20
2017-09-15T01:10:02.954Z,68.10
2017-09-15T01:12:31.493Z,67.20
2017-09-15T01:14:59.205Z,67.00
2017-09-15T01:17:27.697Z,68.00
2017-09-15T01:19:55.488Z,68.00
2017-09-15T01:22:23.208Z,67.70
2017-09-15T01:24:50.919Z,67.60
2017-09-15T01:27:18.725Z,67.30
2017-09-15T01:29:46.505Z,68.70
2017-09-15T01:32:15.043Z,69.50
2017-09-15T01:34:42.877Z,69.40
2017-09-15T01:37:10.675Z,68.80
2017-09-15T01:39:38.455Z,69.10
2017-09-15T01:42:06.266Z,69.00
2017-09-15T01:44:34.040Z,68.80
2017-09-15T01:47:01.864Z,68.90
2017-09-15T01:49:29.601Z,68.90
2017-09-15T01:51:57.386Z,68.70
2017-09-15T01:54:25.160Z,68.80
2017-09-15T01:56:52.968Z,68.30
2017-09-15T01:59:20.697Z,68.80
2017-09-15T02:01:48.481Z,68.70
2017-09-15T02:04:16.269Z,68.10
2017-09-15T02:06:43.996Z,68.30
2017-09-15T02:09:11.712Z,68.70
2017-09-15T02:11:39.545Z,69.00
2017-09-15T02:14:07.270Z,67.80
2017-09-15T02:16:34.988Z,68.00
2017-09-15T02:19:02.794Z,67.90
2017-09-15T02:21:30.575Z,68.50
2017-09-15T02:23:58.300Z,68.60
2017-09-15T02:26:26.109Z,68.60
2017-09-15T02:28:53.872Z,68.50
2017-09-15T02:31:21.600Z,69.10
2017-09-15T02:33:49.409Z,69.20
2017-09-15T02:36:17.124Z,69.10
2017-09-15T02:38:44.907Z,69.40
2017-09-15T02:41:12.776Z,70.40
2017-09-15T02:43:40.543Z,70.10
2017-09-15T02:46:08.331Z,70.60
2017-09-15T02:48:36.137Z,71.80
2017-09-15T02:51:03.953Z,71.90
2017-09-15T02:53:31.728Z,71.40
2017-09-15T02:55:59.602Z,72.80
2017-09-15T02:58:27.324Z,71.50
2017-09-15T03:00:55.133Z,70.90
2017-09-15T03:03:22.974Z,70.00
2017-09-15T03:05:50.744Z,69.70
2017-09-15T03:08:18.495Z,70.10
2017-09-15T03:10:46.284Z,71.00
2017-09-15T03:13:14.070Z,70.40
2017-09-15T03:15:41.790Z,70.30
2017-09-15T03:18:09.668Z,70.20
2017-09-15T03:20:37.447Z,70.50
2017-09-15T03:23:06.803Z,70.70
2017-09-15T03:25:34.514Z,70.50
2017-09-15T03:28:03.010Z,70.90
2017-09-15T03:30:30.848Z,70.70
2017-09-15T03:32:58.578Z,70.50
2017-09-15T03:35:26.313Z,70.60
2017-09-15T03:37:54.122Z,71.20
2017-09-15T03:40:21.843Z,71.80
2017-09-15T03:42:49.575Z,72.30
2017-09-15T03:45:17.408Z,71.90
2017-09-15T03:47:45.133Z,71.70
2017-09-15T03:50:12.902Z,71.70
2017-09-15T03:52:40.703Z,71.60
2017-09-15T03:55:08.424Z,71.30
2017-09-15T03:57:36.150Z,71.50
2017-09-15T04:00:04.730Z,71.60
2017-09-15T04:02:32.449Z,72.50
2017-09-15T04:05:00.342Z,73.30
2017-09-15T04:07:28.069Z,72.40
2017-09-15T04:09:56.426Z,72.90
2017-09-15T04:12:24.155Z,72.80
2017-09-15T04:14:51.913Z,72.80
2017-09-15T04:17:19.697Z,72.70
2017-09-15T04:19:47.513Z,72.80
2017-09-15T04:22:15.325Z,72.60
2017-09-15T04:24:43.115Z,73.20
2017-09-15T04:27:11.175Z,74.60
2017-09-15T04:29:39.047Z,74.20
2017-09-15T04:32:06.838Z,74.20
2017-09-15T04:34:34.777Z,72.70
2017-09-15T04:37:12.179Z,73.80
2017-09-15T04:39:40.877Z,74.80
2017-09-15T04:42:08.621Z,74.80
2017-09-15T04:44:36.400Z,73.80
2017-09-15T04:47:05.005Z,73.50
2017-09-15T04:49:33.006Z,74.80
2017-09-15T04:52:00.737Z,74.80
2017-09-15T04:54:28.548Z,74.10
2017-09-15T04:56:56.370Z,72.50
2017-09-15T04:59:24.192Z,72.80
2017-09-15T05:01:52.026Z,74.90
2017-09-15T05:04:19.769Z,75.30
2017-09-15T05:06:47.633Z,76.40
2017-09-15T05:09:15.842Z,72.20
2017-09-15T05:11:43.858Z,72.30
2017-09-15T05:14:13.356Z,72.90
2017-09-15T05:16:41.951Z,74.40
2017-09-15T05:19:10.642Z,75.10
2017-09-15T05:21:41.228Z,73.60
2017-09-15T05:24:09.025Z,72.60
2017-09-15T05:26:36.802Z,72.00
2017-09-15T05:29:04.606Z,72.40
2017-09-15T05:31:32.448Z,73.00
2017-09-15T05:34:00.342Z,74.50
2017-09-15T05:36:28.105Z,74.90
2017-09-15T05:38:56.774Z,75.50
2017-09-15T05:41:24.506Z,75.20
2017-09-15T05:43:52.339Z,74.70
2017-09-15T05:46:20.301Z,74.80
2017-09-15T05:48:48.119Z,75.10
2017-09-15T05:51:15.874Z,74.90
2017-09-15T05:53:43.757Z,73.90
2017-09-15T05:56:11.546Z,73.30
2017-09-15T05:58:40.088Z,70.70
2017-09-15T06:01:07.823Z,70.60
2017-09-15T06:03:39.234Z,70.20
2017-09-15T06:06:07.106Z,69.70
2017-09-15T06:08:36.567Z,71.50
2017-09-15T06:11:06.510Z,70.70
2017-09-15T06:13:34.692Z,65.90
2017-09-15T06:16:02.616Z,63.70
2017-09-15T06:18:30.464Z,61.20
2017-09-15T06:20:58.194Z,62.40
2017-09-15T06:23:25.987Z,60.70
2017-09-15T06:25:54.349Z,59.80
2017-09-15T06:28:22.088Z,60.00
2017-09-15T06:30:49.919Z,55.50
2017-09-15T06:33:17.742Z,56.80
2017-09-15T06:35:47.438Z,58.10
2017-09-15T06:38:15.231Z,56.80
2017-09-15T06:40:42.943Z,56.80
2017-09-15T06:43:11.687Z,56.20
2017-09-15T06:45:39.472Z,56.30
2017-09-15T06:48:08.051Z,55.50
2017-09-15T06:50:35.933Z,55.40
2017-09-15T06:53:05.309Z,55.00
2017-09-15T06:55:51.406Z,55.10
2017-09-15T06:58:21.170Z,54.40
2017-09-15T07:00:56.435Z,55.10
2017-09-15T07:03:24.288Z,52.70
2017-09-15T07:05:53.834Z,52.80
2017-09-15T07:08:27.446Z,51.30
2017-09-15T07:10:55.281Z,51.30
2017-09-15T07:13:23.906Z,51.90
2017-09-15T07:15:52.463Z,51.50
2017-09-15T07:18:20.250Z,51.40
2017-09-15T07:20:50.054Z,52.00
2017-09-15T07:23:17.851Z,50.80
2017-09-15T07:25:46.207Z,51.70
2017-09-15T07:28:13.980Z,51.70
2017-09-15T07:30:41.852Z,53.80
2017-09-15T07:33:09.610Z,52.40
2017-09-15T07:35:38.503Z,53.10
2017-09-15T07:38:06.291Z,53.00
2017-09-15T07:40:34.126Z,53.60
2017-09-15T07:43:01.946Z,54.10
2017-09-15T07:45:29.702Z,54.30
2017-09-15T07:47:57.497Z,54.60
2017-09-15T07:50:25.307Z,54.00
2017-09-15T07:52:53.126Z,53.10
2017-09-15T07:55:20.907Z,53.90
2017-09-15T07:57:48.841Z,58.00
2017-09-15T08:00:16.654Z,53.20
2017-09-15T08:02:44.396Z,53.60
2017-09-15T08:05:12.731Z,54.30
2017-09-15T08:07:40.601Z,53.30
2017-09-15T08:10:09.137Z,53.50
2017-09-15T08:12:36.908Z,54.30
2017-09-15T08:15:05.315Z,54.20
2017-09-15T08:17:33.383Z,54.70
2017-09-15T08:20:01.110Z,55.00
2017-09-15T08:22:29.335Z,55.00
2017-09-15T08:24:57.280Z,53.50
2017-09-15T08:27:25.070Z,53.90
2017-09-15T08:29:52.794Z,54.10
2017-09-15T08:32:20.842Z,54.00
2017-09-15T08:34:49.384Z,54.90
2017-09-15T08:37:17.261Z,54.90
2017-09-15T08:39:45.102Z,55.60
2017-09-15T08:42:20.622Z,54.90
2017-09-15T08:45:01.064Z,55.10
2017-09-15T08:47:29.866Z,55.00
2017-09-15T08:49:57.596Z,55.00
2017-09-15T08:52:25.547Z,55.00
2017-09-15T08:54:54.338Z,54.60
2017-09-15T08:57:22.744Z,54.40
2017-09-15T08:59:50.473Z,57.20
2017-09-15T09:02:18.360Z,54.50
2017-09-15T09:04:46.082Z,54.90
2017-09-15T09:07:13.844Z,55.20
2017-09-15T09:09:41.689Z,59.80
2017-09-15T09:12:10.192Z,53.70
2017-09-15T09:14:37.992Z,53.70
2017-09-15T09:17:05.858Z,54.10
2017-09-15T09:19:34.391Z,53.20
2017-09-15T09:22:02.219Z,53.10
2017-09-15T09:24:29.965Z,53.60
2017-09-15T09:26:58.521Z,53.70
2017-09-15T09:29:26.318Z,53.50
2017-09-15T09:31:54.116Z,53.40
2017-09-15T09:34:22.630Z,52.90
2017-09-15T09:36:50.361Z,53.00
2017-09-15T09:39:18.176Z,51.70
2017-09-15T09:41:45.940Z,55.20
2017-09-15T09:44:13.739Z,59.40
2017-09-15T09:46:41.929Z,52.10
2017-09-15T09:49:11.128Z,57.20
2017-09-15T09:51:39.668Z,57.20
2017-09-15T09:54:07.443Z,50.40
2017-09-15T09:56:35.253Z,56.30
2017-09-15T09:59:03.101Z,52.40
2017-09-15T10:01:30.958Z,50.20
2017-09-15T10:03:58.737Z,51.00
2017-09-15T10:06:26.466Z,49.20
2017-09-15T10:08:54.280Z,49.50
2017-09-15T10:11:22.068Z,54.10
2017-09-15T10:13:49.785Z,58.10
2017-09-15T10:16:17.631Z,52.10
2017-09-15T10:18:45.378Z,51.20
2017-09-15T10:21:48.505Z,58.60
2017-09-15T10:24:16.242Z,51.10
2017-09-15T10:26:44.046Z,58.30
2017-09-15T10:29:11.784Z,55.40
2017-09-15T10:31:39.576Z,58.30
2017-09-15T10:34:07.312Z,54.00
2017-09-15T10:36:35.146Z,58.00
2017-09-15T10:39:03.669Z,56.30
2017-09-15T10:41:31.404Z,56.40
2017-09-15T10:43:59.323Z,58.60
2017-09-15T10:46:27.101Z,58.40
2017-09-15T10:48:54.895Z,58.60
2017-09-15T10:51:23.489Z,55.30
2017-09-15T10:53:51.235Z,55.30
2017-09-15T10:56:18.957Z,57.00
2017-09-15T10:58:52.453Z,58.00
2017-09-15T11:01:20.206Z,58.30
2017-09-15T11:03:47.964Z,57.70
2017-09-15T11:06:15.701Z,57.70
2017-09-15T11:08:44.258Z,59.20
2017-09-15T11:11:12.059Z,59.60
2017-09-15T11:13:39.889Z,59.30
2017-09-15T11:16:08.398Z,59.10
2017-09-15T11:18:36.982Z,59.00
2017-09-15T11:21:04.708Z,59.50
2017-09-15T11:23:32.570Z,58.80
2017-09-15T11:26:00.379Z,58.30
2017-09-15T11:28:28.165Z,58.80
2017-09-15T11:30:56.730Z,58.20
2017-09-15T11:33:24.508Z,58.10
2017-09-15T11:35:52.297Z,58.60
2017-09-15T11:38:21.131Z,62.10
2017-09-15T11:40:48.877Z,62.80
2017-09-15T11:43:16.688Z,62.70
2017-09-15T11:45:45.248Z,65.50
2017-09-15T11:48:13.009Z,65.30
2017-09-15T11:50:40.818Z,66.00
2017-09-15T11:53:08.607Z,65.50
2017-09-15T11:55:36.393Z,66.40
2017-09-15T11:58:04.185Z,62.20
2017-09-15T12:00:31.996Z,64.10
2017-09-15T12:02:59.732Z,64.10
2017-09-15T12:05:27.477Z,63.00
2017-09-15T12:07:55.392Z,64.00
2017-09-15T12:10:23.129Z,64.00
2017-09-15T12:12:51.122Z,63.60
2017-09-15T12:15:18.867Z,63.80
2017-09-15T12:17:46.690Z,64.70
2017-09-15T12:20:14.489Z,66.00
2017-09-15T12:22:42.232Z,66.50
2017-09-15T12:25:10.035Z,67.00
2017-09-15T12:27:37.807Z,66.30
2017-09-15T12:30:05.620Z,66.80
2017-09-15T12:32:34.171Z,66.20
2017-09-15T12:35:01.960Z,66.10
2017-09-15T12:37:29.810Z,65.90
2017-09-15T12:39:57.549Z,65.90
2017-09-15T12:42:25.281Z,65.40
2017-09-15T12:44:53.071Z,64.90
2017-09-15T12:47:20.805Z,63.50
2017-09-15T12:49:48.537Z,64.50
2017-09-15T12:52:17.080Z,64.20
2017-09-15T12:54:44.822Z,64.90
2017-09-15T12:57:13.385Z,64.50
2017-09-15T12:59:41.165Z,64.30
2017-09-15T13:02:08.949Z,64.50
2017-09-15T13:04:37.506Z,64.00
2017-09-15T13:07:05.228Z,63.90
2017-09-15T13:09:32.988Z,63.20
2017-09-15T13:14:33.631Z,64.30
2017-09-15T13:17:02.507Z,63.40
2017-09-15T13:19:30.250Z,63.70
2017-09-15T13:21:58.069Z,63.00
2017-09-15T13:24:25.885Z,63.40
2017-09-15T13:26:53.646Z,61.80
2017-09-15T13:29:21.374Z,60.50
2017-09-15T13:31:49.233Z,61.00
2017-09-15T13:34:17.015Z,59.10
2017-09-15T13:36:44.756Z,59.40
2017-09-15T13:39:12.545Z,59.10
2017-09-15T13:41:40.370Z,58.90
2017-09-15T13:44:08.110Z,58.70
2017-09-15T13:46:35.910Z,59.60
2017-09-15T13:49:04.396Z,62.00
2017-09-15T13:51:32.143Z,61.90
2017-09-15T13:53:59.973Z,58.60
2017-09-15T13:56:27.738Z,59.30
2017-09-15T13:58:55.487Z,59.50
2017-09-15T14:01:23.287Z,60.00
2017-09-15T14:03:51.065Z,61.70
2017-09-15T14:06:18.870Z,58.70
2017-09-15T14:08:47.351Z,61.10
2017-09-15T14:11:15.896Z,59.40
2017-09-15T14:13:43.804Z,59.30
2017-09-15T14:16:11.618Z,61.50
2017-09-15T14:18:39.349Z,61.10
2017-09-15T14:21:07.912Z,60.40
2017-09-15T14:23:35.716Z,60.20
2017-09-15T14:26:03.487Z,59.70
2017-09-15T14:28:31.206Z,60.50
2017-09-15T14:30:59.011Z,60.60
2017-09-15T14:33:26.784Z,61.00
2017-09-15T14:35:54.551Z,60.70
2017-09-15T14:38:22.745Z,61.10
2017-09-15T14:40:50.637Z,60.90
2017-09-15T14:43:18.452Z,61.00
2017-09-15T14:45:46.180Z,61.10
2017-09-15T14:48:13.904Z,61.30
2017-09-15T14:50:41.685Z,61.20
2017-09-15T14:53:09.408Z,62.20
2017-09-15T14:55:37.278Z,63.00
2017-09-15T14:58:05.000Z,63.40
2017-09-15T15:00:32.764Z,62.30
2017-09-15T15:03:01.364Z,63.40
2017-09-15T15:05:29.151Z,63.40
2017-09-15T15:07:57.733Z,63.90
2017-09-15T15:10:25.527Z,63.80
2017-09-15T15:12:53.279Z,62.80
2017-09-15T15:15:21.857Z,63.30
2017-09-15T15:17:49.580Z,63.10
2017-09-15T15:20:17.354Z,62.70
2017-09-15T15:22:45.129Z,63.30
2017-09-15T15:25:12.999Z,63.10
2017-09-15T15:27:40.769Z,62.10
2017-09-15T15:30:08.543Z,61.40
2017-09-15T15:32:36.493Z,60.60
2017-09-15T15:35:04.229Z,60.60
2017-09-15T15:37:32.087Z,60.30
2017-09-15T15:39:59.837Z,60.20
2017-09-15T15:42:27.664Z,60.40
2017-09-15T15:44:55.406Z,61.10
2017-09-15T15:47:23.311Z,60.50
2017-09-15T15:49:52.684Z,61.30
2017-09-15T15:52:20.446Z,61.00
2017-09-15T15:54:48.196Z,61.00
2017-09-15T15:57:15.912Z,59.70
2017-09-15T15:59:43.787Z,62.30
2017-09-15T16:02:11.600Z,63.10
2017-09-15T16:04:39.329Z,62.50
2017-09-15T16:07:07.136Z,60.50
2017-09-15T16:09:34.997Z,62.10
2017-09-15T16:12:02.738Z,62.60
2017-09-15T16:14:30.634Z,61.70
2017-09-15T16:16:58.352Z,61.50
2017-09-15T16:19:26.138Z,62.80
2017-09-15T16:21:53.960Z,62.90
2017-09-15T16:24:21.667Z,59.70
2017-09-15T16:26:49.452Z,60.50
2017-09-15T16:29:18.058Z,62.60
2017-09-15T16:31:46.557Z,62.20
2017-09-15T16:34:15.735Z,62.10
2017-09-15T16:36:44.254Z,63.50
2017-09-15T16:39:17.698Z,63.50
2017-09-15T16:41:52.836Z,61.60
2017-09-15T16:44:27.104Z,62.10
2017-09-15T16:47:00.438Z,64.90
2017-09-15T16:49:34.605Z,62.80
2017-09-15T16:52:02.380Z,62.00
2017-09-15T16:54:30.776Z,62.50
2017-09-15T16:56:58.647Z,63.20
2017-09-15T16:59:26.460Z,63.10
2017-09-15T17:01:57.460Z,63.60
2017-09-15T17:04:25.264Z,63.50
2017-09-15T17:06:53.049Z,66.20
2017-09-15T17:09:20.869Z,64.00
2017-09-15T17:11:48.646Z,65.00
2017-09-15T17:14:17.284Z,65.30
2017-09-15T17:16:45.856Z,65.80
2017-09-15T17:19:14.398Z,66.70
2017-09-15T17:21:42.233Z,66.50
2017-09-15T17:24:11.757Z,67.10
2017-09-15T17:26:39.567Z,68.50
2017-09-15T17:29:07.348Z,67.80
2017-09-15T17:31:35.215Z,67.30
2017-09-15T17:34:04.847Z,68.50
2017-09-15T17:36:50.336Z,68.40
2017-09-15T17:39:26.261Z,70.00
2017-09-15T17:41:54.025Z,71.20
2017-09-15T17:44:21.838Z,70.30
2017-09-15T17:46:49.807Z,71.00
2017-09-15T17:49:17.594Z,70.10
2017-09-15T17:51:46.900Z,71.10
2017-09-15T17:54:14.749Z,71.60
2017-09-15T17:56:42.567Z,72.70
2017-09-15T17:59:16.214Z,73.50
2017-09-15T18:01:46.452Z,75.30
2017-09-15T18:04:16.222Z,76.00
2017-09-15T18:06:48.336Z,75.40
2017-09-15T18:09:16.171Z,75.40
2017-09-15T18:11:43.912Z,75.80
2017-09-15T18:14:11.826Z,75.70
2017-09-15T18:16:41.429Z,74.40
2017-09-15T18:19:09.230Z,72.40
2017-09-15T18:21:38.913Z,72.50
2017-09-15T18:24:06.749Z,72.60
2017-09-15T18:26:35.226Z,72.40
2017-09-15T18:29:03.307Z,75.70
2017-09-15T18:31:31.075Z,70.30
2017-09-15T18:33:59.561Z,69.90
2017-09-15T18:36:27.320Z,69.70
2017-09-15T18:38:55.061Z,69.90
2017-09-15T18:41:22.787Z,70.00
2017-09-15T18:43:59.729Z,71.00
2017-09-15T18:46:27.692Z,72.00
2017-09-15T18:48:56.310Z,70.80
2017-09-15T18:51:24.089Z,70.80
2017-09-15T18:53:51.880Z,71.20
2017-09-15T18:56:21.100Z,71.70
2017-09-15T18:58:48.920Z,69.10
2017-09-15T19:01:16.715Z,68.80
2017-09-15T19:03:44.626Z,73.20
2017-09-15T19:06:13.002Z,67.60
2017-09-15T19:08:49.924Z,70.40
2017-09-15T19:11:20.186Z,68.60
2017-09-15T19:13:48.711Z,68.20
2017-09-15T19:16:17.253Z,67.50
2017-09-15T19:18:46.619Z,67.80
2017-09-15T19:21:15.024Z,68.20
2017-09-15T19:23:47.048Z,68.20
2017-09-15T19:26:17.964Z,68.90
2017-09-15T19:28:57.935Z,67.00
2017-09-15T19:31:28.916Z,66.40
2017-09-15T19:34:00.505Z,71.60
2017-09-15T19:36:29.781Z,65.70
2017-09-15T19:38:59.087Z,65.30
2017-09-15T19:41:28.268Z,66.40
2017-09-15T19:43:56.334Z,67.20
2017-09-15T19:46:25.261Z,70.50
2017-09-15T19:48:53.365Z,66.80
2017-09-15T19:51:22.210Z,67.90
2017-09-15T19:53:50.923Z,66.90
2017-09-15T19:56:18.762Z,66.90
2017-09-15T19:58:46.496Z,66.10
2017-09-15T20:01:17.421Z,67.00
2017-09-15T20:03:45.367Z,71.60
2017-09-15T20:06:15.495Z,65.30
2017-09-15T20:08:43.398Z,65.40
2017-09-15T20:11:11.194Z,69.00
2017-09-15T20:13:39.012Z,66.70
2017-09-15T20:16:22.444Z,66.10
2017-09-15T20:18:50.269Z,69.90
2017-09-15T20:21:19.188Z,69.60
2017-09-15T20:23:47.000Z,66.70
2017-09-15T20:26:15.507Z,67.00
2017-09-15T20:28:44.068Z,68.50
2017-09-15T20:33:45.808Z,68.10
2017-09-15T20:36:13.468Z,68.80
2017-09-15T20:38:41.190Z,67.60
2017-09-15T20:41:10.773Z,67.10
2017-09-15T20:43:38.736Z,74.30
2017-09-15T20:46:06.435Z,68.90
2017-09-15T20:48:34.197Z,71.80
2017-09-15T20:51:01.878Z,72.20
2017-09-15T20:53:29.594Z,68.40
2017-09-15T20:55:57.280Z,68.00
2017-09-15T20:58:25.027Z,70.00
2017-09-15T21:00:52.689Z,68.80
2017-09-15T21:03:20.445Z,61.60
2017-09-15T21:05:48.224Z,61.90
2017-09-15T21:08:16.670Z,64.70
2017-09-15T21:10:45.448Z,66.00
2017-09-15T21:13:14.263Z,65.80
2017-09-15T21:15:42.660Z,65.70
2017-09-15T21:18:10.368Z,66.20
2017-09-15T21:20:38.135Z,67.10
2017-09-15T21:23:05.815Z,67.70
2017-09-15T21:25:34.340Z,68.50
2017-09-15T21:28:02.086Z,68.30
2017-09-15T21:30:29.850Z,68.00
2017-09-15T21:32:57.569Z,68.00
2017-09-15T21:35:25.317Z,68.60
2017-09-15T21:37:52.997Z,70.10
2017-09-15T21:40:20.812Z,71.50
2017-09-15T21:42:48.544Z,70.50
2017-09-15T21:45:16.265Z,71.10
2017-09-15T21:47:43.992Z,71.50
2017-09-15T21:50:11.666Z,72.60
2017-09-15T21:52:39.375Z,76.30
2017-09-15T21:55:07.143Z,78.30
2017-09-15T21:57:34.873Z,81.00
2017-09-15T22:00:02.635Z,81.20
2017-09-15T22:02:30.458Z,82.10
2017-09-15T22:04:58.200Z,83.00
2017-09-15T22:07:25.874Z,84.20
2017-09-15T22:09:53.706Z,83.30
2017-09-15T22:12:21.467Z,83.50
2017-09-15T22:14:49.221Z,82.50
2017-09-15T22:17:17.018Z,83.00
2017-09-15T22:19:44.710Z,84.40
2017-09-15T22:22:12.372Z,84.00
2017-09-15T22:24:40.161Z,83.90
2017-09-15T22:27:07.841Z,83.60
2017-09-15T22:29:35.566Z,84.20
2017-09-15T22:32:03.336Z,84.50
2017-09-15T22:34:31.001Z,85.80
2017-09-15T22:36:58.717Z,85.10
2017-09-15T22:39:26.466Z,84.20
2017-09-15T22:41:54.167Z,82.10
2017-09-15T22:44:22.656Z,83.60
2017-09-15T22:46:50.474Z,83.50
2017-09-15T22:49:18.190Z,82.20
2017-09-15T22:51:45.925Z,79.90
2017-09-15T22:54:37.320Z,80.70
2017-09-15T22:57:05.059Z,80.40
2017-09-15T22:59:32.775Z,79.40
2017-09-15T23:02:00.517Z,78.30
2017-09-15T23:04:28.237Z,78.00
2017-09-15T23:06:56.712Z,76.80
2017-09-15T23:09:25.294Z,78.20
2017-09-15T23:11:53.736Z,77.00
2017-09-15T23:14:21.460Z,77.00
2017-09-15T23:16:49.278Z,75.60
2017-09-15T23:19:17.026Z,75.30
2017-09-15T23:21:44.696Z,76.80
2017-09-15T23:24:12.387Z,75.90
2017-09-15T23:26:40.131Z,76.60
2017-09-15T23:29:07.814Z,75.90
2017-09-15T23:31:35.560Z,75.70
2017-09-15T23:34:03.230Z,76.60
2017-09-15T23:36:30.947Z,77.30
2017-09-15T23:38:58.755Z,77.50
2017-09-15T23:41:26.421Z,76.90
2017-09-15T23:43:54.138Z,76.80
2017-09-15T23:46:22.751Z,77.50
2017-09-15T23:48:50.502Z,77.40
2017-09-15T23:51:18.229Z,77.90
2017-09-15T23:53:46.063Z,78.20
2017-09-15T23:56:13.784Z,78.10
2017-09-15T23:58:41.505Z,76.80
